sensor_id;sensor_type;location;lat;lon;timestamp;P1;durP1;ratioP1;P2;durP2;ratioP2
22665;SDS011;11499;49.486;11.104;2023-01-25T00:02:27;12.80;;;9.70;;
22665;SDS011;11499;49.486;11.104;2023-01-25T00:04:53;12.80;;;10.03;;
22665;SDS011;11499;49.486;11.104;2023-01-25T00:07:18;12.23;;;9.47;;
22665;SDS011;11499;49.486;11.104;2023-01-25T00:09:44;11.90;;;8.57;;
22665;SDS011;11499;49.486;11.104;2023-01-25T00:14:57;12.53;;;9.17;;
22665;SDS011;11499;49.486;11.104;2023-01-25T00:17:23;11.73;;;9.60;;
22665;SDS011;11499;49.486;11.104;2023-01-25T00:19:48;11.03;;;8.83;;
22665;SDS011;11499;49.486;11.104;2023-01-25T00:22:14;13.30;;;9.33;;
22665;SDS011;11499;49.486;11.104;2023-01-25T00:24:39;11.37;;;8.70;;
22665;SDS011;11499;49.486;11.104;2023-01-25T00:27:05;12.17;;;9.87;;
22665;SDS011;11499;49.486;11.104;2023-01-25T00:29:30;13.23;;;9.23;;
22665;SDS011;11499;49.486;11.104;2023-01-25T00:36:50;11.93;;;9.63;;
22665;SDS011;11499;49.486;11.104;2023-01-25T00:42:11;11.67;;;9.10;;
22665;SDS011;11499;49.486;11.104;2023-01-25T00:44:38;10.83;;;8.90;;
22665;SDS011;11499;49.486;11.104;2023-01-25T00:47:04;11.53;;;8.80;;
22665;SDS011;11499;49.486;11.104;2023-01-25T00:49:30;12.47;;;8.80;;
22665;SDS011;11499;49.486;11.104;2023-01-25T00:51:56;13.03;;;9.63;;
22665;SDS011;11499;49.486;11.104;2023-01-25T00:54:22;11.10;;;9.40;;
22665;SDS011;11499;49.486;11.104;2023-01-25T00:56:48;14.77;;;10.47;;
22665;SDS011;11499;49.486;11.104;2023-01-25T00:59:16;9.93;;;8.40;;
22665;SDS011;11499;49.486;11.104;2023-01-25T01:01:42;12.80;;;9.03;;
22665;SDS011;11499;49.486;11.104;2023-01-25T01:04:08;11.13;;;8.50;;
22665;SDS011;11499;49.486;11.104;2023-01-25T01:09:14;11.77;;;9.43;;
22665;SDS011;11499;49.486;11.104;2023-01-25T01:11:41;11.20;;;8.83;;
22665;SDS011;11499;49.486;11.104;2023-01-25T01:14:07;10.60;;;9.03;;
22665;SDS011;11499;49.486;11.104;2023-01-25T01:16:33;10.10;;;8.47;;
22665;SDS011;11499;49.486;11.104;2023-01-25T01:18:59;12.90;;;9.30;;
22665;SDS011;11499;49.486;11.104;2023-01-25T01:21:24;11.53;;;8.87;;
22665;SDS011;11499;49.486;11.104;2023-01-25T01:23:50;11.97;;;9.27;;
22665;SDS011;11499;49.486;11.104;2023-01-25T01:26:17;10.27;;;8.63;;
22665;SDS011;11499;49.486;11.104;2023-01-25T01:28:46;12.23;;;10.00;;
22665;SDS011;11499;49.486;11.104;2023-01-25T01:31:13;11.20;;;9.30;;
22665;SDS011;11499;49.486;11.104;2023-01-25T01:36:22;11.33;;;8.87;;
22665;SDS011;11499;49.486;11.104;2023-01-25T01:38:50;12.40;;;9.23;;
22665;SDS011;11499;49.486;11.104;2023-01-25T01:41:16;12.07;;;9.83;;
22665;SDS011;11499;49.486;11.104;2023-01-25T01:43:42;12.80;;;9.50;;
22665;SDS011;11499;49.486;11.104;2023-01-25T01:46:16;10.47;;;9.00;;
22665;SDS011;11499;49.486;11.104;2023-01-25T01:51:46;11.43;;;8.33;;
22665;SDS011;11499;49.486;11.104;2023-01-25T01:54:31;10.50;;;7.70;;
22665;SDS011;11499;49.486;11.104;2023-01-25T02:02:27;11.00;;;8.07;;
22665;SDS011;11499;49.486;11.104;2023-01-25T02:04:53;10.93;;;8.13;;
22665;SDS011;11499;49.486;11.104;2023-01-25T02:07:24;12.80;;;9.03;;
22665;SDS011;11499;49.486;11.104;2023-01-25T02:09:54;11.47;;;8.70;;
22665;SDS011;11499;49.486;11.104;2023-01-25T02:12:20;10.17;;;8.50;;
22665;SDS011;11499;49.486;11.104;2023-01-25T02:14:48;10.47;;;8.00;;
22665;SDS011;11499;49.486;11.104;2023-01-25T02:17:25;10.50;;;8.37;;
22665;SDS011;11499;49.486;11.104;2023-01-25T02:22:29;10.70;;;8.40;;
22665;SDS011;11499;49.486;11.104;2023-01-25T02:25:11;10.30;;;8.50;;
22665;SDS011;11499;49.486;11.104;2023-01-25T02:30:19;11.03;;;8.37;;
22665;SDS011;11499;49.486;11.104;2023-01-25T02:32:45;11.57;;;9.03;;
22665;SDS011;11499;49.486;11.104;2023-01-25T02:35:16;11.73;;;8.93;;
22665;SDS011;11499;49.486;11.104;2023-01-25T02:37:46;10.20;;;8.57;;
22665;SDS011;11499;49.486;11.104;2023-01-25T02:40:11;11.80;;;8.17;;
22665;SDS011;11499;49.486;11.104;2023-01-25T02:42:37;10.60;;;8.83;;
22665;SDS011;11499;49.486;11.104;2023-01-25T02:45:06;10.50;;;7.70;;
22665;SDS011;11499;49.486;11.104;2023-01-25T02:47:37;11.73;;;9.70;;
22665;SDS011;11499;49.486;11.104;2023-01-25T02:50:03;11.57;;;8.47;;
22665;SDS011;11499;49.486;11.104;2023-01-25T02:55:16;10.33;;;8.30;;
22665;SDS011;11499;49.486;11.104;2023-01-25T02:57:42;10.63;;;8.33;;
22665;SDS011;11499;49.486;11.104;2023-01-25T03:00:08;11.20;;;9.00;;
22665;SDS011;11499;49.486;11.104;2023-01-25T03:02:34;10.43;;;8.40;;
22665;SDS011;11499;49.486;11.104;2023-01-25T03:04:59;9.60;;;7.43;;
22665;SDS011;11499;49.486;11.104;2023-01-25T03:07:25;9.30;;;7.70;;
22665;SDS011;11499;49.486;11.104;2023-01-25T03:09:50;10.57;;;7.77;;
22665;SDS011;11499;49.486;11.104;2023-01-25T03:12:16;9.60;;;7.77;;
22665;SDS011;11499;49.486;11.104;2023-01-25T03:14:41;9.40;;;7.00;;
22665;SDS011;11499;49.486;11.104;2023-01-25T03:17:08;9.80;;;7.77;;
22665;SDS011;11499;49.486;11.104;2023-01-25T03:22:34;10.07;;;7.47;;
22665;SDS011;11499;49.486;11.104;2023-01-25T03:24:59;9.47;;;7.47;;
22665;SDS011;11499;49.486;11.104;2023-01-25T03:27:25;11.20;;;8.53;;
22665;SDS011;11499;49.486;11.104;2023-01-25T03:29:52;9.40;;;7.40;;
22665;SDS011;11499;49.486;11.104;2023-01-25T03:32:18;8.53;;;7.33;;
22665;SDS011;11499;49.486;11.104;2023-01-25T03:34:43;9.07;;;7.30;;
22665;SDS011;11499;49.486;11.104;2023-01-25T03:37:09;9.90;;;7.47;;
22665;SDS011;11499;49.486;11.104;2023-01-25T03:39:34;9.40;;;7.53;;
22665;SDS011;11499;49.486;11.104;2023-01-25T03:42:00;10.23;;;7.40;;
22665;SDS011;11499;49.486;11.104;2023-01-25T03:44:25;9.97;;;7.70;;
22665;SDS011;11499;49.486;11.104;2023-01-25T03:46:51;9.37;;;8.20;;
22665;SDS011;11499;49.486;11.104;2023-01-25T03:49:16;9.07;;;7.57;;
22665;SDS011;11499;49.486;11.104;2023-01-25T03:54:51;10.70;;;8.30;;
22665;SDS011;11499;49.486;11.104;2023-01-25T03:57:16;10.70;;;7.83;;
22665;SDS011;11499;49.486;11.104;2023-01-25T03:59:42;9.83;;;7.87;;
22665;SDS011;11499;49.486;11.104;2023-01-25T04:02:07;9.67;;;7.67;;
22665;SDS011;11499;49.486;11.104;2023-01-25T04:04:33;9.43;;;7.33;;
22665;SDS011;11499;49.486;11.104;2023-01-25T04:06:59;9.67;;;7.47;;
22665;SDS011;11499;49.486;11.104;2023-01-25T04:09:25;9.47;;;7.13;;
22665;SDS011;11499;49.486;11.104;2023-01-25T04:11:50;9.80;;;7.20;;
22665;SDS011;11499;49.486;11.104;2023-01-25T04:14:16;10.17;;;7.47;;
22665;SDS011;11499;49.486;11.104;2023-01-25T04:16:41;10.50;;;7.87;;
22665;SDS011;11499;49.486;11.104;2023-01-25T04:21:52;10.03;;;7.87;;
22665;SDS011;11499;49.486;11.104;2023-01-25T04:24:17;10.40;;;7.57;;
22665;SDS011;11499;49.486;11.104;2023-01-25T04:26:42;10.47;;;7.73;;
22665;SDS011;11499;49.486;11.104;2023-01-25T04:29:08;11.40;;;8.03;;
22665;SDS011;11499;49.486;11.104;2023-01-25T04:31:34;10.67;;;7.80;;
22665;SDS011;11499;49.486;11.104;2023-01-25T04:34:00;10.37;;;8.17;;
22665;SDS011;11499;49.486;11.104;2023-01-25T04:36:25;11.33;;;8.40;;
22665;SDS011;11499;49.486;11.104;2023-01-25T04:38:51;11.43;;;8.53;;
22665;SDS011;11499;49.486;11.104;2023-01-25T04:41:16;11.27;;;8.97;;
22665;SDS011;11499;49.486;11.104;2023-01-25T04:43:42;12.33;;;8.80;;
22665;SDS011;11499;49.486;11.104;2023-01-25T04:48:14;10.80;;;7.37;;
22665;SDS011;11499;49.486;11.104;2023-01-25T04:50:40;9.67;;;7.47;;
22665;SDS011;11499;49.486;11.104;2023-01-25T04:53:06;8.40;;;7.30;;
22665;SDS011;11499;49.486;11.104;2023-01-25T04:55:33;10.23;;;7.43;;
22665;SDS011;11499;49.486;11.104;2023-01-25T04:57:59;10.47;;;7.47;;
22665;SDS011;11499;49.486;11.104;2023-01-25T05:00:25;8.60;;;7.07;;
22665;SDS011;11499;49.486;11.104;2023-01-25T05:02:52;8.70;;;7.17;;
22665;SDS011;11499;49.486;11.104;2023-01-25T05:05:17;8.60;;;7.27;;
22665;SDS011;11499;49.486;11.104;2023-01-25T05:07:43;10.13;;;7.23;;
22665;SDS011;11499;49.486;11.104;2023-01-25T05:10:09;8.43;;;7.00;;
22665;SDS011;11499;49.486;11.104;2023-01-25T05:15:23;8.53;;;7.20;;
22665;SDS011;11499;49.486;11.104;2023-01-25T05:17:48;9.50;;;7.13;;
22665;SDS011;11499;49.486;11.104;2023-01-25T05:20:14;10.30;;;7.70;;
22665;SDS011;11499;49.486;11.104;2023-01-25T05:22:40;9.80;;;7.47;;
22665;SDS011;11499;49.486;11.104;2023-01-25T05:25:05;8.03;;;6.60;;
22665;SDS011;11499;49.486;11.104;2023-01-25T05:27:51;10.13;;;7.27;;
22665;SDS011;11499;49.486;11.104;2023-01-25T05:30:16;8.47;;;6.53;;
22665;SDS011;11499;49.486;11.104;2023-01-25T05:32:42;9.53;;;7.40;;
22665;SDS011;11499;49.486;11.104;2023-01-25T05:35:07;8.87;;;6.80;;
22665;SDS011;11499;49.486;11.104;2023-01-25T05:37:33;9.07;;;7.23;;
22665;SDS011;11499;49.486;11.104;2023-01-25T05:42:37;9.57;;;7.67;;
22665;SDS011;11499;49.486;11.104;2023-01-25T05:45:02;8.40;;;7.17;;
22665;SDS011;11499;49.486;11.104;2023-01-25T05:47:28;10.03;;;7.63;;
22665;SDS011;11499;49.486;11.104;2023-01-25T05:49:53;9.00;;;6.60;;
22665;SDS011;11499;49.486;11.104;2023-01-25T05:52:19;8.83;;;7.20;;
22665;SDS011;11499;49.486;11.104;2023-01-25T05:54:44;8.60;;;7.30;;
22665;SDS011;11499;49.486;11.104;2023-01-25T05:57:10;7.80;;;6.90;;
22665;SDS011;11499;49.486;11.104;2023-01-25T05:59:38;9.80;;;6.93;;
22665;SDS011;11499;49.486;11.104;2023-01-25T06:02:03;9.00;;;6.43;;
22665;SDS011;11499;49.486;11.104;2023-01-25T06:04:29;9.77;;;7.17;;
22665;SDS011;11499;49.486;11.104;2023-01-25T06:09:34;10.50;;;7.90;;
22665;SDS011;11499;49.486;11.104;2023-01-25T06:12:00;8.23;;;6.70;;
22665;SDS011;11499;49.486;11.104;2023-01-25T06:14:25;10.33;;;7.57;;
22665;SDS011;11499;49.486;11.104;2023-01-25T06:16:51;9.97;;;7.23;;
22665;SDS011;11499;49.486;11.104;2023-01-25T06:19:16;8.90;;;7.17;;
22665;SDS011;11499;49.486;11.104;2023-01-25T06:21:42;10.33;;;7.10;;
22665;SDS011;11499;49.486;11.104;2023-01-25T06:24:07;10.10;;;7.37;;
22665;SDS011;11499;49.486;11.104;2023-01-25T06:26:33;12.20;;;8.20;;
22665;SDS011;11499;49.486;11.104;2023-01-25T06:28:58;10.50;;;7.30;;
22665;SDS011;11499;49.486;11.104;2023-01-25T06:31:24;10.43;;;8.53;;
22665;SDS011;11499;49.486;11.104;2023-01-25T06:33:50;11.97;;;8.43;;
22665;SDS011;11499;49.486;11.104;2023-01-25T06:36:16;12.23;;;8.80;;
22665;SDS011;11499;49.486;11.104;2023-01-25T06:41:19;12.77;;;9.73;;
22665;SDS011;11499;49.486;11.104;2023-01-25T06:43:45;12.53;;;9.20;;
22665;SDS011;11499;49.486;11.104;2023-01-25T06:46:13;14.30;;;10.90;;
22665;SDS011;11499;49.486;11.104;2023-01-25T06:48:39;10.87;;;8.10;;
22665;SDS011;11499;49.486;11.104;2023-01-25T06:51:07;11.03;;;7.93;;
22665;SDS011;11499;49.486;11.104;2023-01-25T06:53:35;10.07;;;7.67;;
22665;SDS011;11499;49.486;11.104;2023-01-25T06:56:07;12.40;;;7.77;;
22665;SDS011;11499;49.486;11.104;2023-01-25T06:58:43;10.87;;;7.87;;
22665;SDS011;11499;49.486;11.104;2023-01-25T07:01:12;12.80;;;9.70;;
22665;SDS011;11499;49.486;11.104;2023-01-25T07:03:38;14.90;;;9.37;;
22665;SDS011;11499;49.486;11.104;2023-01-25T07:08:12;11.00;;;8.20;;
22665;SDS011;11499;49.486;11.104;2023-01-25T07:10:37;10.53;;;8.07;;
22665;SDS011;11499;49.486;11.104;2023-01-25T07:13:03;11.57;;;7.70;;
22665;SDS011;11499;49.486;11.104;2023-01-25T07:15:28;9.57;;;7.57;;
22665;SDS011;11499;49.486;11.104;2023-01-25T07:17:54;11.80;;;8.30;;
22665;SDS011;11499;49.486;11.104;2023-01-25T07:20:19;12.83;;;9.20;;
22665;SDS011;11499;49.486;11.104;2023-01-25T07:22:44;9.33;;;7.70;;
22665;SDS011;11499;49.486;11.104;2023-01-25T07:25:10;10.87;;;7.83;;
22665;SDS011;11499;49.486;11.104;2023-01-25T07:27:35;12.93;;;8.60;;
22665;SDS011;11499;49.486;11.104;2023-01-25T07:30:01;10.33;;;7.77;;
22665;SDS011;11499;49.486;11.104;2023-01-25T07:35:05;10.07;;;8.23;;
22665;SDS011;11499;49.486;11.104;2023-01-25T07:37:31;10.90;;;8.37;;
22665;SDS011;11499;49.486;11.104;2023-01-25T07:39:58;11.60;;;8.70;;
22665;SDS011;11499;49.486;11.104;2023-01-25T07:42:23;9.43;;;7.63;;
22665;SDS011;11499;49.486;11.104;2023-01-25T07:44:49;12.60;;;9.23;;
22665;SDS011;11499;49.486;11.104;2023-01-25T07:47:14;12.00;;;8.60;;
22665;SDS011;11499;49.486;11.104;2023-01-25T07:49:40;11.50;;;9.07;;
22665;SDS011;11499;49.486;11.104;2023-01-25T07:52:05;10.17;;;7.20;;
22665;SDS011;11499;49.486;11.104;2023-01-25T07:54:31;11.57;;;8.47;;
22665;SDS011;11499;49.486;11.104;2023-01-25T07:56:56;12.13;;;8.30;;
22665;SDS011;11499;49.486;11.104;2023-01-25T07:59:23;9.53;;;8.43;;
22665;SDS011;11499;49.486;11.104;2023-01-25T08:04:49;10.43;;;8.10;;
22665;SDS011;11499;49.486;11.104;2023-01-25T08:07:15;10.87;;;8.23;;
22665;SDS011;11499;49.486;11.104;2023-01-25T08:09:40;8.50;;;6.80;;
22665;SDS011;11499;49.486;11.104;2023-01-25T08:12:06;10.83;;;7.70;;
22665;SDS011;11499;49.486;11.104;2023-01-25T08:14:32;11.30;;;9.00;;
22665;SDS011;11499;49.486;11.104;2023-01-25T08:16:58;10.70;;;8.43;;
22665;SDS011;11499;49.486;11.104;2023-01-25T08:19:24;9.60;;;7.50;;
22665;SDS011;11499;49.486;11.104;2023-01-25T08:21:50;9.40;;;7.73;;
22665;SDS011;11499;49.486;11.104;2023-01-25T08:24:16;9.53;;;8.17;;
22665;SDS011;11499;49.486;11.104;2023-01-25T08:26:41;10.87;;;7.93;;
22665;SDS011;11499;49.486;11.104;2023-01-25T08:31:40;11.27;;;7.93;;
22665;SDS011;11499;49.486;11.104;2023-01-25T08:34:08;10.33;;;8.00;;
22665;SDS011;11499;49.486;11.104;2023-01-25T08:36:34;9.90;;;7.77;;
22665;SDS011;11499;49.486;11.104;2023-01-25T08:39:00;10.37;;;7.37;;
22665;SDS011;11499;49.486;11.104;2023-01-25T08:41:31;9.03;;;7.10;;
22665;SDS011;11499;49.486;11.104;2023-01-25T08:43:58;8.83;;;6.67;;
22665;SDS011;11499;49.486;11.104;2023-01-25T08:46:24;8.17;;;6.77;;
22665;SDS011;11499;49.486;11.104;2023-01-25T08:48:55;8.53;;;6.93;;
22665;SDS011;11499;49.486;11.104;2023-01-25T08:51:22;10.33;;;7.13;;
22665;SDS011;11499;49.486;11.104;2023-01-25T08:53:48;10.47;;;7.40;;
22665;SDS011;11499;49.486;11.104;2023-01-25T08:58:14;8.53;;;7.33;;
22665;SDS011;11499;49.486;11.104;2023-01-25T09:00:41;10.47;;;7.27;;
22665;SDS011;11499;49.486;11.104;2023-01-25T09:03:07;11.03;;;8.67;;
22665;SDS011;11499;49.486;11.104;2023-01-25T09:05:34;9.93;;;7.47;;
22665;SDS011;11499;49.486;11.104;2023-01-25T09:08:03;10.30;;;7.87;;
22665;SDS011;11499;49.486;11.104;2023-01-25T09:10:30;9.60;;;7.47;;
22665;SDS011;11499;49.486;11.104;2023-01-25T09:12:56;9.23;;;7.57;;
22665;SDS011;11499;49.486;11.104;2023-01-25T09:15:21;9.07;;;7.80;;
22665;SDS011;11499;49.486;11.104;2023-01-25T09:17:50;13.60;;;8.87;;
22665;SDS011;11499;49.486;11.104;2023-01-25T09:20:20;9.20;;;7.27;;
22665;SDS011;11499;49.486;11.104;2023-01-25T09:25:34;12.63;;;9.17;;
22665;SDS011;11499;49.486;11.104;2023-01-25T09:28:00;9.50;;;7.70;;
22665;SDS011;11499;49.486;11.104;2023-01-25T09:30:26;9.23;;;7.67;;
22665;SDS011;11499;49.486;11.104;2023-01-25T09:32:52;11.83;;;8.30;;
22665;SDS011;11499;49.486;11.104;2023-01-25T09:35:17;8.60;;;6.73;;
22665;SDS011;11499;49.486;11.104;2023-01-25T09:37:43;9.63;;;7.07;;
22665;SDS011;11499;49.486;11.104;2023-01-25T09:40:16;10.03;;;7.53;;
22665;SDS011;11499;49.486;11.104;2023-01-25T09:45:23;10.27;;;7.77;;
22665;SDS011;11499;49.486;11.104;2023-01-25T09:48:20;8.77;;;7.20;;
22665;SDS011;11499;49.486;11.104;2023-01-25T09:54:36;10.07;;;7.43;;
22665;SDS011;11499;49.486;11.104;2023-01-25T09:57:12;8.80;;;6.83;;
22665;SDS011;11499;49.486;11.104;2023-01-25T09:59:40;11.13;;;7.70;;
22665;SDS011;11499;49.486;11.104;2023-01-25T10:04:56;9.07;;;7.27;;
22665;SDS011;11499;49.486;11.104;2023-01-25T10:07:31;9.13;;;6.90;;
22665;SDS011;11499;49.486;11.104;2023-01-25T10:10:13;9.47;;;6.97;;
22665;SDS011;11499;49.486;11.104;2023-01-25T10:12:59;9.97;;;7.53;;
22665;SDS011;11499;49.486;11.104;2023-01-25T10:21:43;9.80;;;7.73;;
22665;SDS011;11499;49.486;11.104;2023-01-25T10:29:55;10.07;;;7.73;;
22665;SDS011;11499;49.486;11.104;2023-01-25T10:32:27;10.17;;;7.40;;
22665;SDS011;11499;49.486;11.104;2023-01-25T10:34:59;10.43;;;7.87;;
22665;SDS011;11499;49.486;11.104;2023-01-25T10:37:36;9.73;;;7.27;;
22665;SDS011;11499;49.486;11.104;2023-01-25T10:45:34;8.83;;;7.70;;
22665;SDS011;11499;49.486;11.104;2023-01-25T10:48:00;11.50;;;7.93;;
22665;SDS011;11499;49.486;11.104;2023-01-25T10:53:41;11.67;;;8.10;;
22665;SDS011;11499;49.486;11.104;2023-01-25T10:58:42;11.17;;;8.10;;
22665;SDS011;11499;49.486;11.104;2023-01-25T11:01:23;9.83;;;7.77;;
22665;SDS011;11499;49.486;11.104;2023-01-25T11:03:49;10.07;;;8.33;;
22665;SDS011;11499;49.486;11.104;2023-01-25T11:06:15;10.80;;;8.43;;
22665;SDS011;11499;49.486;11.104;2023-01-25T11:09:28;8.77;;;7.60;;
22665;SDS011;11499;49.486;11.104;2023-01-25T11:12:16;11.33;;;7.90;;
22665;SDS011;11499;49.486;11.104;2023-01-25T11:14:43;10.77;;;8.13;;
22665;SDS011;11499;49.486;11.104;2023-01-25T11:17:23;10.00;;;8.20;;
22665;SDS011;11499;49.486;11.104;2023-01-25T11:20:05;9.80;;;7.83;;
22665;SDS011;11499;49.486;11.104;2023-01-25T11:22:47;11.00;;;8.80;;
22665;SDS011;11499;49.486;11.104;2023-01-25T11:25:23;12.27;;;9.37;;
22665;SDS011;11499;49.486;11.104;2023-01-25T11:27:50;9.90;;;7.77;;
22665;SDS011;11499;49.486;11.104;2023-01-25T11:30:16;8.03;;;7.23;;
22665;SDS011;11499;49.486;11.104;2023-01-25T11:32:45;10.57;;;8.20;;
22665;SDS011;11499;49.486;11.104;2023-01-25T11:35:11;10.10;;;7.43;;
22665;SDS011;11499;49.486;11.104;2023-01-25T11:39:38;10.57;;;8.10;;
22665;SDS011;11499;49.486;11.104;2023-01-25T11:42:19;11.20;;;8.30;;
22665;SDS011;11499;49.486;11.104;2023-01-25T11:47:54;10.37;;;8.17;;
22665;SDS011;11499;49.486;11.104;2023-01-25T11:50:30;10.77;;;7.90;;
22665;SDS011;11499;49.486;11.104;2023-01-25T12:04:56;14.33;;;9.00;;
22665;SDS011;11499;49.486;11.104;2023-01-25T12:07:30;10.43;;;7.80;;
22665;SDS011;11499;49.486;11.104;2023-01-25T12:10:21;12.17;;;8.43;;
22665;SDS011;11499;49.486;11.104;2023-01-25T12:13:15;10.70;;;8.27;;
22665;SDS011;11499;49.486;11.104;2023-01-25T12:18:31;11.20;;;9.00;;
22665;SDS011;11499;49.486;11.104;2023-01-25T12:21:23;13.55;;;10.15;;
22665;SDS011;11499;49.486;11.104;2023-01-25T12:31:59;11.27;;;9.00;;
22665;SDS011;11499;49.486;11.104;2023-01-25T12:34:36;12.03;;;9.20;;
22665;SDS011;11499;49.486;11.104;2023-01-25T12:37:06;11.47;;;9.00;;
22665;SDS011;11499;49.486;11.104;2023-01-25T12:39:53;10.33;;;8.20;;
22665;SDS011;11499;49.486;11.104;2023-01-25T12:42:25;12.87;;;9.17;;
22665;SDS011;11499;49.486;11.104;2023-01-25T12:45:00;10.20;;;8.13;;
22665;SDS011;11499;49.486;11.104;2023-01-25T12:47:37;11.70;;;8.87;;
22665;SDS011;11499;49.486;11.104;2023-01-25T12:50:16;10.73;;;8.40;;
22665;SDS011;11499;49.486;11.104;2023-01-25T12:52:58;9.87;;;7.80;;
22665;SDS011;11499;49.486;11.104;2023-01-25T12:58:27;9.67;;;8.17;;
22665;SDS011;11499;49.486;11.104;2023-01-25T13:01:00;10.87;;;8.20;;
22665;SDS011;11499;49.486;11.104;2023-01-25T13:12:09;9.70;;;7.83;;
22665;SDS011;11499;49.486;11.104;2023-01-25T13:14:36;9.60;;;7.70;;
22665;SDS011;11499;49.486;11.104;2023-01-25T13:17:24;9.37;;;7.43;;
22665;SDS011;11499;49.486;11.104;2023-01-25T13:19:56;10.37;;;7.53;;
22665;SDS011;11499;49.486;11.104;2023-01-25T13:27:31;9.27;;;7.03;;
22665;SDS011;11499;49.486;11.104;2023-01-25T13:30:01;9.93;;;7.87;;
22665;SDS011;11499;49.486;11.104;2023-01-25T13:35:33;9.50;;;7.63;;
22665;SDS011;11499;49.486;11.104;2023-01-25T13:38:05;9.50;;;7.67;;
22665;SDS011;11499;49.486;11.104;2023-01-25T13:43:40;8.70;;;7.27;;
22665;SDS011;11499;49.486;11.104;2023-01-25T13:46:08;9.87;;;7.90;;
22665;SDS011;11499;49.486;11.104;2023-01-25T13:51:25;11.93;;;8.63;;
22665;SDS011;11499;49.486;11.104;2023-01-25T13:53:57;10.00;;;7.90;;
22665;SDS011;11499;49.486;11.104;2023-01-25T13:56:33;10.50;;;8.03;;
22665;SDS011;11499;49.486;11.104;2023-01-25T13:58:59;10.63;;;8.20;;
22665;SDS011;11499;49.486;11.104;2023-01-25T14:01:25;9.93;;;8.10;;
22665;SDS011;11499;49.486;11.104;2023-01-25T14:04:00;12.93;;;8.07;;
22665;SDS011;11499;49.486;11.104;2023-01-25T14:06:29;12.83;;;8.50;;
22665;SDS011;11499;49.486;11.104;2023-01-25T14:08:58;10.30;;;8.40;;
22665;SDS011;11499;49.486;11.104;2023-01-25T14:11:31;9.77;;;7.60;;
22665;SDS011;11499;49.486;11.104;2023-01-25T14:14:00;10.43;;;8.40;;
22665;SDS011;11499;49.486;11.104;2023-01-25T14:18:42;10.83;;;7.80;;
22665;SDS011;11499;49.486;11.104;2023-01-25T14:21:10;11.33;;;8.00;;
22665;SDS011;11499;49.486;11.104;2023-01-25T14:23:40;11.13;;;8.17;;
22665;SDS011;11499;49.486;11.104;2023-01-25T14:26:22;10.50;;;7.63;;
22665;SDS011;11499;49.486;11.104;2023-01-25T14:28:50;11.57;;;7.97;;
22665;SDS011;11499;49.486;11.104;2023-01-25T14:31:18;10.60;;;7.47;;
22665;SDS011;11499;49.486;11.104;2023-01-25T14:33:46;11.80;;;9.03;;
22665;SDS011;11499;49.486;11.104;2023-01-25T14:36:19;9.30;;;7.03;;
22665;SDS011;11499;49.486;11.104;2023-01-25T14:38:45;8.60;;;7.23;;
22665;SDS011;11499;49.486;11.104;2023-01-25T14:41:18;9.70;;;7.07;;
22665;SDS011;11499;49.486;11.104;2023-01-25T14:46:18;10.82;;;9.48;;
22665;SDS011;11499;49.486;11.104;2023-01-25T14:48:48;10.07;;;8.43;;
22665;SDS011;11499;49.486;11.104;2023-01-25T14:51:26;10.70;;;8.03;;
22665;SDS011;11499;49.486;11.104;2023-01-25T14:53:58;11.40;;;8.73;;
22665;SDS011;11499;49.486;11.104;2023-01-25T14:56:47;13.90;;;9.20;;
22665;SDS011;11499;49.486;11.104;2023-01-25T14:59:19;11.00;;;8.70;;
22665;SDS011;11499;49.486;11.104;2023-01-25T15:02:50;12.70;;;9.30;;
22665;SDS011;11499;49.486;11.104;2023-01-25T15:04:59;10.50;;;8.03;;
22665;SDS011;11499;49.486;11.104;2023-01-25T15:07:32;9.87;;;7.50;;
22665;SDS011;11499;49.486;11.104;2023-01-25T15:12:57;9.57;;;7.77;;
22665;SDS011;11499;49.486;11.104;2023-01-25T15:15:28;10.90;;;7.83;;
22665;SDS011;11499;49.486;11.104;2023-01-25T15:17:55;10.17;;;7.60;;
22665;SDS011;11499;49.486;11.104;2023-01-25T15:20:25;9.70;;;7.57;;
22665;SDS011;11499;49.486;11.104;2023-01-25T15:22:50;11.00;;;7.93;;
22665;SDS011;11499;49.486;11.104;2023-01-25T15:25:16;9.83;;;7.90;;
22665;SDS011;11499;49.486;11.104;2023-01-25T15:27:42;11.53;;;7.67;;
22665;SDS011;11499;49.486;11.104;2023-01-25T15:30:11;9.40;;;7.73;;
22665;SDS011;11499;49.486;11.104;2023-01-25T15:32:37;10.17;;;8.07;;
22665;SDS011;11499;49.486;11.104;2023-01-25T15:35:04;10.57;;;8.03;;
22665;SDS011;11499;49.486;11.104;2023-01-25T15:40:44;10.03;;;8.23;;
22665;SDS011;11499;49.486;11.104;2023-01-25T15:43:10;10.70;;;8.60;;
22665;SDS011;11499;49.486;11.104;2023-01-25T15:45:36;10.00;;;8.20;;
22665;SDS011;11499;49.486;11.104;2023-01-25T15:48:02;9.87;;;8.07;;
22665;SDS011;11499;49.486;11.104;2023-01-25T15:50:28;8.47;;;7.57;;
22665;SDS011;11499;49.486;11.104;2023-01-25T15:52:54;9.87;;;7.33;;
22665;SDS011;11499;49.486;11.104;2023-01-25T15:55:19;10.00;;;8.47;;
22665;SDS011;11499;49.486;11.104;2023-01-25T15:57:45;10.50;;;8.43;;
22665;SDS011;11499;49.486;11.104;2023-01-25T16:00:17;9.97;;;8.33;;
22665;SDS011;11499;49.486;11.104;2023-01-25T16:02:45;9.40;;;7.93;;
22665;SDS011;11499;49.486;11.104;2023-01-25T16:09:15;10.63;;;8.03;;
22665;SDS011;11499;49.486;11.104;2023-01-25T16:11:43;10.03;;;8.80;;
22665;SDS011;11499;49.486;11.104;2023-01-25T16:14:10;11.13;;;8.13;;
22665;SDS011;11499;49.486;11.104;2023-01-25T16:16:43;11.33;;;8.53;;
22665;SDS011;11499;49.486;11.104;2023-01-25T16:19:11;10.40;;;8.93;;
22665;SDS011;11499;49.486;11.104;2023-01-25T16:21:38;12.73;;;9.03;;
22665;SDS011;11499;49.486;11.104;2023-01-25T16:24:05;12.43;;;9.20;;
22665;SDS011;11499;49.486;11.104;2023-01-25T16:26:31;11.53;;;8.90;;
22665;SDS011;11499;49.486;11.104;2023-01-25T16:28:56;11.07;;;8.50;;
22665;SDS011;11499;49.486;11.104;2023-01-25T16:33:35;9.23;;;7.80;;
22665;SDS011;11499;49.486;11.104;2023-01-25T16:36:14;10.43;;;8.33;;
22665;SDS011;11499;49.486;11.104;2023-01-25T16:38:44;12.03;;;8.20;;
22665;SDS011;11499;49.486;11.104;2023-01-25T16:41:10;8.80;;;6.83;;
22665;SDS011;11499;49.486;11.104;2023-01-25T16:43:38;11.53;;;8.13;;
22665;SDS011;11499;49.486;11.104;2023-01-25T16:46:04;11.63;;;8.70;;
22665;SDS011;11499;49.486;11.104;2023-01-25T16:48:30;10.53;;;8.30;;
22665;SDS011;11499;49.486;11.104;2023-01-25T16:50:55;11.03;;;8.33;;
22665;SDS011;11499;49.486;11.104;2023-01-25T16:53:22;11.20;;;8.40;;
22665;SDS011;11499;49.486;11.104;2023-01-25T16:55:48;11.77;;;8.63;;
22665;SDS011;11499;49.486;11.104;2023-01-25T17:00:49;10.03;;;7.80;;
22665;SDS011;11499;49.486;11.104;2023-01-25T17:03:14;8.97;;;7.53;;
22665;SDS011;11499;49.486;11.104;2023-01-25T17:05:40;10.53;;;8.07;;
22665;SDS011;11499;49.486;11.104;2023-01-25T17:08:05;11.67;;;8.47;;
22665;SDS011;11499;49.486;11.104;2023-01-25T17:10:32;12.70;;;8.50;;
22665;SDS011;11499;49.486;11.104;2023-01-25T17:13:00;12.43;;;9.23;;
22665;SDS011;11499;49.486;11.104;2023-01-25T17:15:26;11.70;;;8.60;;
22665;SDS011;11499;49.486;11.104;2023-01-25T17:17:51;12.93;;;9.90;;
22665;SDS011;11499;49.486;11.104;2023-01-25T17:20:17;11.77;;;9.87;;
22665;SDS011;11499;49.486;11.104;2023-01-25T17:22:42;13.13;;;10.10;;
22665;SDS011;11499;49.486;11.104;2023-01-25T17:27:47;12.03;;;9.57;;
22665;SDS011;11499;49.486;11.104;2023-01-25T17:30:12;12.70;;;9.27;;
22665;SDS011;11499;49.486;11.104;2023-01-25T17:32:38;10.77;;;8.77;;